Time;durP1;ratioP1;P1;durP2;ratioP2;P2;SDS_P1;SDS_P2;PMS_P1;PMS_P2;Temp;Humidity;BMP_temperature;BMP_pressure;BME280_temperature;BME280_humidity;BME280_pressure;Samples;Min_cycle;Max_cycle;Signal;HPM_P1;HPM_P2
2023/02/23 00:00:26;;;;;;;12.40;7.30;;;;;;;9.49;100.00;101352.97;2071065;28;20189;-60
2023/02/23 00:01:29;;;;;;;14.80;7.28;;;;;;;9.49;100.00;101343.91;2073065;28;20185;-60
2023/02/23 00:02:29;;;;;;;9.52;6.15;;;;;;;9.49;100.00;101344.66;2066758;28;20210;-61
2023/02/23 00:03:30;;;;;;;11.83;6.20;;;;;;;9.40;100.00;101344.38;2071372;28;20264;-60
2023/02/23 00:04:31;;;;;;;10.70;5.90;;;;;;;9.40;100.00;101340.81;2072467;28;20213;-60
2023/02/23 00:05:35;;;;;;;10.57;6.67;;;;;;;9.38;100.00;101345.97;2072258;28;20175;-61
2023/02/23 00:06:37;;;;;;;11.10;7.13;;;;;;;9.24;100.00;101329.47;2064733;28;20253;-61
2023/02/23 00:07:37;;;;;;;8.55;6.20;;;;;;;9.36;100.00;101349.13;2067541;28;20198;-60
2023/02/23 00:08:39;;;;;;;10.37;6.97;;;;;;;8.64;100.00;101238.66;2072903;28;20211;-61
2023/02/23 00:09:39;;;;;;;10.55;5.95;;;;;;;9.37;100.00;101353.47;2072393;28;20201;-61
2023/02/23 00:10:40;;;;;;;7.37;5.20;;;;;;;9.36;100.00;101351.09;2072311;28;20200;-60
2023/02/23 00:11:40;;;;;;;6.30;4.37;;;;;;;9.30;100.00;101359.06;2071198;28;20199;-60
2023/02/23 00:12:41;;;;;;;6.43;5.00;;;;;;;9.19;100.00;101343.72;2072103;28;20190;-60
2023/02/23 00:13:45;;;;;;;6.40;4.93;;;;;;;9.20;100.00;101359.13;2072401;28;20215;-60
2023/02/23 00:14:45;;;;;;;6.00;5.22;;;;;;;9.19;100.00;101361.13;2073279;28;20251;-60
2023/02/23 00:15:45;;;;;;;7.23;5.30;;;;;;;9.14;100.00;101367.06;2071427;28;20274;-61
2023/02/23 00:16:46;;;;;;;8.10;5.17;;;;;;;9.12;100.00;101357.63;2065957;28;20190;-60
2023/02/23 00:17:46;;;;;;;6.67;5.20;;;;;;;9.04;100.00;101356.88;2067865;28;20197;-60
2023/02/23 00:18:59;;;;;;;6.10;4.53;;;;;;;9.08;100.00;101359.59;2067945;28;20194;-60
2023/02/23 00:20:00;;;;;;;8.52;5.20;;;;;;;9.09;100.00;101355.66;2068658;28;20193;-60
2023/02/23 00:21:00;;;;;;;6.82;4.43;;;;;;;9.11;100.00;101353.25;2072592;28;20256;-60
2023/02/23 00:22:01;;;;;;;6.37;4.50;;;;;;;9.06;100.00;101364.75;2071584;28;20476;-60
2023/02/23 00:23:03;;;;;;;7.00;4.73;;;;;;;9.07;100.00;101360.81;2071685;28;20225;-61
2023/02/23 00:24:07;;;;;;;6.47;4.32;;;;;;;8.96;100.00;101354.56;2067897;28;20181;-60
2023/02/23 00:25:09;;;;;;;5.88;4.72;;;;;;;8.65;100.00;101339.69;2073039;28;20182;-60
2023/02/23 00:26:10;;;;;;;6.35;4.68;;;;;;;8.75;100.00;101365.69;2068839;28;20563;-60
2023/02/23 00:27:16;;;;;;;7.18;4.97;;;;;;;8.76;100.00;101370.81;2072371;28;20383;-60
2023/02/23 00:28:17;;;;;;;7.65;5.38;;;;;;;8.72;100.00;101367.28;2072307;28;20227;-60
2023/02/23 00:29:20;;;;;;;10.37;5.37;;;;;;;8.65;100.00;101372.06;2071763;28;20192;-61
2023/02/23 00:30:21;;;;;;;8.07;5.70;;;;;;;8.64;100.00;101373.25;2072104;28;20448;-60
2023/02/23 00:31:24;;;;;;;8.73;5.87;;;;;;;8.68;100.00;101372.06;2072537;28;20204;-61
2023/02/23 00:32:25;;;;;;;10.65;6.38;;;;;;;8.62;100.00;101373.63;2068450;28;20265;-60
2023/02/23 00:33:25;;;;;;;8.27;5.70;;;;;;;8.48;100.00;101354.38;2070640;28;20196;-60
2023/02/23 00:34:26;;;;;;;10.10;6.30;;;;;;;8.69;100.00;101379.16;2065120;28;20191;-60
2023/02/23 00:35:26;;;;;;;11.50;6.77;;;;;;;8.75;100.00;101373.97;2072675;28;20300;-60
2023/02/23 00:36:32;;;;;;;10.00;6.40;;;;;;;8.82;100.00;101380.25;2071525;28;20240;-60
2023/02/23 00:37:32;;;;;;;9.80;6.05;;;;;;;8.88;100.00;101377.88;2072627;28;20189;-61
2023/02/23 00:38:34;;;;;;;8.10;6.20;;;;;;;8.93;100.00;101381.03;2072253;28;20190;-60
2023/02/23 00:39:35;;;;;;;9.75;6.28;;;;;;;8.97;100.00;101381.00;2072663;28;20293;-60
2023/02/23 00:40:39;;;;;;;10.37;6.23;;;;;;;9.02;100.00;101381.34;2071498;28;20209;-60
2023/02/23 00:41:41;;;;;;;9.20;6.07;;;;;;;8.99;100.00;101384.94;2072409;28;20198;-60
2023/02/23 00:42:46;;;;;;;8.88;6.43;;;;;;;8.36;100.00;101285.75;2071985;28;20203;-60
2023/02/23 00:43:46;;;;;;;8.52;6.13;;;;;;;9.01;100.00;101376.22;2072307;28;20193;-60
2023/02/23 00:44:48;;;;;;;10.57;6.50;;;;;;;8.53;100.00;101304.25;2072517;28;20178;-60
2023/02/23 00:45:48;;;;;;;9.43;6.30;;;;;;;9.02;100.00;101375.06;2071943;28;20687;-60
2023/02/23 00:46:50;;;;;;;10.03;6.17;;;;;;;8.99;100.00;101375.84;2072065;28;20596;-61
2023/02/23 00:47:50;;;;;;;8.25;6.10;;;;;;;8.16;100.00;101259.78;2072216;28;20426;-61
2023/02/23 00:48:54;;;;;;;11.20;6.70;;;;;;;8.91;100.00;101380.63;2072677;28;20290;-60
2023/02/23 00:49:54;;;;;;;9.45;6.22;;;;;;;8.88;100.00;101386.19;2072207;28;20208;-61
2023/02/23 00:51:02;;;;;;;7.57;6.27;;;;;;;7.92;100.00;101255.16;2072325;28;20197;-60
2023/02/23 00:52:03;;;;;;;8.45;6.05;;;;;;;8.74;100.00;101386.22;2071884;28;20232;-60
2023/02/23 00:53:04;;;;;;;8.65;6.18;;;;;;;8.65;100.00;101388.63;2072030;28;20560;-60
2023/02/23 00:54:06;;;;;;;8.27;6.07;;;;;;;8.50;100.00;101376.84;2071997;28;20204;-60
2023/02/23 00:55:11;;;;;;;9.93;6.63;;;;;;;8.56;100.00;101391.81;2071355;28;20190;-60
2023/02/23 00:56:14;;;;;;;9.05;6.50;;;;;;;8.56;100.00;101388.28;2066830;28;20260;-60
2023/02/23 00:57:14;;;;;;;7.65;5.95;;;;;;;8.52;100.00;101395.78;2072369;28;20600;-60
2023/02/23 00:58:16;;;;;;;8.23;6.47;;;;;;;8.30;100.00;101375.72;2071699;28;20211;-60
2023/02/23 00:59:17;;;;;;;9.23;6.65;;;;;;;8.41;100.00;101395.81;2072556;28;20225;-60
2023/02/23 01:00:19;;;;;;;9.05;7.15;;;;;;;8.39;100.00;101392.69;2072327;28;20252;-60
2023/02/23 01:01:20;;;;;;;8.50;6.78;;;;;;;8.39;100.00;101395.44;2071074;28;20284;-60
2023/02/23 01:02:20;;;;;;;8.77;7.00;;;;;;;8.41;100.00;101398.59;2068002;28;20543;-60
2023/02/23 01:03:21;;;;;;;10.93;7.43;;;;;;;8.42;100.00;101397.41;2069270;28;20727;-60
2023/02/23 01:04:22;;;;;;;8.57;6.70;;;;;;;8.43;100.00;101401.75;2068067;28;20236;-60
2023/02/23 01:05:22;;;;;;;9.47;7.50;;;;;;;8.42;100.00;101405.69;2072791;28;20181;-60
2023/02/23 01:06:23;;;;;;;11.57;6.87;;;;;;;8.39;100.00;101411.22;2071017;28;20263;-60
2023/02/23 01:07:24;;;;;;;8.50;7.10;;;;;;;8.39;100.00;101405.69;2072030;28;20263;-60
2023/02/23 01:08:26;;;;;;;8.43;6.68;;;;;;;8.42;100.00;101411.22;2071740;28;20220;-61
2023/02/23 01:09:27;;;;;;;10.85;6.97;;;;;;;8.38;100.00;101402.16;2071999;28;20227;-60
2023/02/23 01:10:27;;;;;;;11.67;6.73;;;;;;;8.41;100.00;101398.59;2072206;28;20280;-60
2023/02/23 01:11:29;;;;;;;10.53;6.90;;;;;;;8.45;100.00;101393.06;2072177;28;20724;-60
2023/02/23 01:12:30;;;;;;;9.13;6.45;;;;;;;8.38;100.00;101396.63;2071644;28;20271;-60
2023/02/23 01:13:30;;;;;;;9.33;7.13;;;;;;;8.35;100.00;101402.94;2071372;28;20186;-60
2023/02/23 01:14:31;;;;;;;9.07;7.00;;;;;;;8.27;100.00;101401.41;2072443;28;20694;-61
2023/02/23 01:15:31;;;;;;;8.83;6.83;;;;;;;8.05;100.00;101368.69;2071577;28;20209;-60
2023/02/23 01:16:33;;;;;;;9.27;6.47;;;;;;;8.06;100.00;101393.13;2070158;28;20189;-60
2023/02/23 01:17:34;;;;;;;8.00;6.68;;;;;;;8.08;100.00;101406.50;2071635;28;20553;-60
2023/02/23 01:18:35;;;;;;;9.07;6.80;;;;;;;8.02;100.00;101397.06;2071608;28;20614;-60
2023/02/23 01:19:36;;;;;;;8.25;6.97;;;;;;;7.82;100.00;101384.84;2072106;28;20205;-60
2023/02/23 01:20:37;;;;;;;9.20;7.83;;;;;;;6.93;100.00;101261.91;2071671;28;20189;-60
2023/02/23 01:21:40;;;;;;;10.77;7.45;;;;;;;7.85;100.00;101398.63;2071091;28;20196;-60
2023/02/23 01:22:41;;;;;;;10.02;7.10;;;;;;;7.72;100.00;101408.50;2069286;28;20278;-60
2023/02/23 01:23:42;;;;;;;10.20;7.50;;;;;;;7.66;100.00;101409.28;2072493;28;20674;-60
2023/02/23 01:24:43;;;;;;;9.57;7.27;;;;;;;7.67;100.00;101416.38;2072221;28;20237;-60
2023/02/23 01:25:44;;;;;;;9.53;7.37;;;;;;;6.90;100.00;101298.53;2065502;28;20189;-60
2023/02/23 01:26:45;;;;;;;9.57;7.70;;;;;;;7.03;100.00;101321.78;2069392;28;20202;-61
2023/02/23 01:27:45;;;;;;;9.53;7.40;;;;;;;7.47;100.00;101412.41;2068063;28;20190;-60
2023/02/23 01:28:54;;;;;;;12.63;8.67;;;;;;;6.47;100.00;101274.81;2071602;28;20265;-60
2023/02/23 01:29:54;;;;;;;11.70;8.15;;;;;;;7.34;100.00;101408.47;2069231;28;20240;-60
2023/02/23 01:30:55;;;;;;;11.83;8.47;;;;;;;7.39;100.00;101417.13;2071103;28;20182;-60
2023/02/23 01:31:55;;;;;;;12.40;8.10;;;;;;;7.40;100.00;101412.41;2071689;28;20214;-61
2023/02/23 01:32:56;;;;;;;18.93;8.87;;;;;;;7.43;100.00;101417.16;2071750;28;20620;-60
2023/02/23 01:33:59;;;;;;;24.10;9.67;;;;;;;7.41;100.00;101411.22;2071682;28;20213;-60
2023/02/23 01:34:59;;;;;;;17.38;8.65;;;;;;;7.39;100.00;101414.38;2071968;28;20194;-60
2023/02/23 01:36:00;;;;;;;12.13;8.43;;;;;;;7.33;100.00;101407.69;2071068;28;20243;-60
2023/02/23 01:37:02;;;;;;;10.70;8.47;;;;;;;7.42;100.00;101423.84;2071758;28;20197;-60
2023/02/23 01:38:02;;;;;;;13.20;8.63;;;;;;;7.39;100.00;101425.41;2071885;28;20251;-60
2023/02/23 01:39:06;;;;;;;14.67;9.23;;;;;;;7.38;100.00;101426.59;2072110;28;20331;-60
2023/02/23 01:40:15;;;;;;;13.98;9.50;;;;;;;7.41;100.00;101425.81;2071875;28;20279;-60
2023/02/23 01:41:15;;;;;;;10.77;9.23;;;;;;;7.23;100.00;101396.66;2071833;28;20216;-60
2023/02/23 01:42:16;;;;;;;12.10;9.90;;;;;;;7.40;100.00;101423.44;2071295;28;20180;-60
2023/02/23 01:43:25;;;;;;;12.70;10.13;;;;;;;7.38;100.00;101415.56;2072399;28;20681;-60
2023/02/23 01:44:31;;;;;;;11.85;10.27;;;;;;;7.39;100.00;101413.59;2066803;28;20624;-60
2023/02/23 01:45:34;;;;;;;16.45;11.52;;;;;;;6.41;100.00;101276.38;2064028;28;20185;-60
2023/02/23 01:46:40;;;;;;;16.33;10.43;;;;;;;7.27;100.00;101417.50;2070714;28;20263;-60
2023/02/23 01:47:40;;;;;;;12.90;10.18;;;;;;;7.25;100.00;101416.34;2072018;28;20561;-60
2023/02/23 01:48:41;;;;;;;13.67;11.07;;;;;;;7.24;100.00;101423.03;2071993;28;20204;-61
2023/02/23 01:49:42;;;;;;;14.53;10.63;;;;;;;7.28;100.00;101423.84;2071756;28;20207;-60
2023/02/23 01:51:09;;;;;;;15.27;10.60;;;;;;;7.29;100.00;101423.41;2072144;28;20197;-60
2023/02/23 01:52:13;;;;;;;18.58;11.40;;;;;;;7.12;100.00;101415.91;2071549;28;20207;-60
2023/02/23 01:53:16;;;;;;;12.95;10.85;;;;;;;7.09;100.00;101388.34;2071700;28;20197;-60
2023/02/23 01:54:23;;;;;;;15.05;10.13;;;;;;;7.02;100.00;101372.56;2071744;28;20193;-60
2023/02/23 01:55:28;;;;;;;13.05;9.25;;;;;;;7.36;100.00;101422.66;2067491;28;20202;-61
2023/02/23 01:56:33;;;;;;;11.65;8.70;;;;;;;7.44;100.00;101435.28;2066683;28;20709;-61
2023/02/23 01:57:35;;;;;;;12.98;10.35;;;;;;;7.42;100.00;101432.91;2068608;28;20213;-60
2023/02/23 01:58:42;;;;;;;13.45;9.82;;;;;;;7.39;100.00;101439.19;2068128;28;20238;-60
2023/02/23 01:59:45;;;;;;;15.40;11.85;;;;;;;7.34;100.00;101438.81;2069679;28;20218;-60
2023/02/23 02:01:00;;;;;;;16.60;12.23;;;;;;;7.18;100.00;101432.88;2068054;28;20267;-61
2023/02/23 02:02:04;;;;;;;15.90;11.38;;;;;;;7.01;100.00;101422.56;2071881;28;20216;-60
2023/02/23 02:03:10;;;;;;;14.95;11.68;;;;;;;6.59;100.00;101354.34;2071606;28;20262;-60
2023/02/23 02:04:15;;;;;;;19.75;13.07;;;;;;;6.59;100.00;101361.78;2072044;28;20164;-61
2023/02/23 02:05:17;;;;;;;17.52;12.82;;;;;;;6.56;100.00;101371.63;2071208;28;20177;-61
2023/02/23 02:06:22;;;;;;;15.70;12.05;;;;;;;7.00;100.00;101463.13;2071294;28;20185;-60
2023/02/23 02:07:27;;;;;;;14.90;12.40;;;;;;;7.01;100.00;101444.59;2064462;28;20533;-61
2023/02/23 02:08:32;;;;;;;14.43;11.82;;;;;;;6.79;100.00;101424.47;2071677;28;20734;-60
2023/02/23 02:09:38;;;;;;;14.90;11.98;;;;;;;6.95;100.00;101444.19;2071920;28;20192;-60
2023/02/23 02:10:39;;;;;;;15.15;12.02;;;;;;;6.90;100.00;101446.53;2072021;28;20197;-60
2023/02/23 02:11:43;;;;;;;15.40;11.57;;;;;;;6.36;100.00;101380.59;2065946;28;20674;-60
2023/02/23 02:12:47;;;;;;;15.82;12.52;;;;;;;6.79;100.00;101446.50;2066803;28;20214;-60
2023/02/23 02:13:48;;;;;;;15.35;12.35;;;;;;;6.75;100.00;101453.94;2071519;28;20291;-60
2023/02/23 02:14:50;;;;;;;16.07;11.80;;;;;;;6.78;100.00;101458.69;2072044;28;20193;-60
2023/02/23 02:16:19;;;;;;;15.82;12.27;;;;;;;6.74;100.00;101448.81;2070851;28;20641;-60
2023/02/23 02:17:37;;;;;;;15.98;11.75;;;;;;;6.74;100.00;101454.34;2069201;28;20180;-60
2023/02/23 02:19:04;;;;;;;15.40;12.25;;;;;;;6.66;100.00;101461.00;2071745;28;20266;-61
2023/02/23 02:20:32;;;;;;;22.45;13.10;;;;;;;6.63;100.00;101464.50;2063276;28;20619;-60
2023/02/23 02:21:42;;;;;;;17.63;13.02;;;;;;;6.62;100.00;101458.19;2066214;28;20251;-60
2023/02/23 02:23:19;;;;;;;18.65;12.23;;;;;;;6.66;100.00;101459.00;2071140;28;20192;-60
2023/02/23 02:24:52;;;;;;;21.38;13.10;;;;;;;5.99;100.00;101346.94;2066063;28;20198;-60
2023/02/23 02:26:14;;;;;;;16.08;12.15;;;;;;;6.72;100.00;101456.69;2063217;28;20652;-60
2023/02/23 02:27:42;;;;;;;16.90;12.65;;;;;;;6.69;100.00;101460.22;2070138;28;20201;-60
2023/02/23 02:29:04;;;;;;;16.13;12.32;;;;;;;6.77;100.00;101456.31;2071902;28;20194;-60
2023/02/23 02:30:43;;;;;;;19.13;11.98;;;;;;;6.79;100.00;101460.28;2070293;28;20194;-60
2023/02/23 02:32:20;;;;;;;17.35;12.27;;;;;;;6.79;100.00;101463.03;2065234;28;20190;-60
2023/02/23 02:33:42;;;;;;;22.63;13.57;;;;;;;6.74;100.00;101460.66;2071471;28;20205;-61
2023/02/23 02:34:46;;;;;;;22.02;13.45;;;;;;;6.80;100.00;101461.84;2073658;28;20476;-60
2023/02/23 02:36:01;;;;;;;22.67;12.43;;;;;;;6.85;100.00;101466.19;2072617;28;20221;-60
2023/02/23 02:37:17;;;;;;;23.20;12.30;;;;;;;6.54;100.00;101415.28;2073083;28;20193;-60
2023/02/23 02:38:29;;;;;;;21.08;12.05;;;;;;;6.98;100.00;101473.72;2073149;28;20197;-60
2023/02/23 02:39:35;;;;;;;17.83;11.07;;;;;;;7.02;100.00;101479.28;2073517;28;20319;-60
2023/02/23 02:40:52;;;;;;;16.92;11.38;;;;;;;7.04;100.00;101476.91;2073186;28;20193;-60
2023/02/23 02:42:20;;;;;;;23.27;12.35;;;;;;;7.03;100.00;101475.34;2065790;28;20176;-60
2023/02/23 02:43:34;;;;;;;29.98;12.60;;;;;;;7.02;100.00;101471.78;2071160;28;20580;-60
2023/02/23 02:45:06;;;;;;;19.42;11.88;;;;;;;7.01;100.00;101472.16;2071110;28;20218;-60
2023/02/23 02:46:22;;;;;;;21.52;12.68;;;;;;;6.99;100.00;101480.84;2072717;28;20205;-60
2023/02/23 02:47:33;;;;;;;21.60;11.52;;;;;;;6.88;100.00;101449.66;2073095;28;20188;-60
2023/02/23 02:48:47;;;;;;;24.13;12.18;;;;;;;6.95;100.00;101463.50;2072914;28;20292;-60
2023/02/23 02:50:01;;;;;;;18.60;13.40;;;;;;;7.02;100.00;101487.53;2073043;28;20195;-60
2023/02/23 02:51:22;;;;;;;19.45;16.13;;;;;;;7.06;100.00;101486.38;2069679;28;20192;-60
2023/02/23 02:52:30;;;;;;;25.88;21.52;;;;;;;7.03;100.00;101494.63;2065687;28;20186;-60
2023/02/23 02:53:44;;;;;;;27.13;22.45;;;;;;;7.00;100.00;101509.16;2072938;28;20188;-61
2023/02/23 02:54:55;;;;;;;29.83;23.33;;;;;;;6.83;100.00;101466.56;2073057;28;20164;-60
2023/02/23 02:56:00;;;;;;;25.38;21.02;;;;;;;7.02;100.00;101496.56;2072412;28;20212;-60
2023/02/23 02:57:03;;;;;;;22.13;17.20;;;;;;;6.93;100.00;101482.34;2072693;28;20180;-60
2023/02/23 02:58:06;;;;;;;22.83;18.25;;;;;;;6.99;100.00;101496.56;2073079;28;20189;-60
2023/02/23 04:18:05;;;;;;;22.08;15.02;;;;;;;5.98;100.00;101551.72;2072558;28;20225;-60
2023/02/23 04:19:05;;;;;;;23.20;14.27;;;;;;;5.98;100.00;101549.75;2069640;28;20220;-60
2023/02/23 04:20:07;;;;;;;22.00;14.40;;;;;;;6.02;100.00;101555.28;2067379;28;20254;-60
2023/02/23 04:21:07;;;;;;;21.48;13.57;;;;;;;6.05;100.00;101554.53;2072340;28;20184;-60
2023/02/23 04:22:08;;;;;;;18.67;13.60;;;;;;;6.07;100.00;101554.94;2071958;28;20218;-60
2023/02/23 04:23:08;;;;;;;15.53;12.70;;;;;;;5.15;100.00;101407.50;2072989;28;20658;-60
2023/02/23 04:24:09;;;;;;;19.13;13.20;;;;;;;6.02;100.00;101547.03;2072632;28;20191;-60
2023/02/23 04:25:12;;;;;;;20.70;13.00;;;;;;;6.05;100.00;101547.06;2072138;28;20204;-60
2023/02/23 04:26:12;;;;;;;17.42;13.82;;;;;;;6.07;100.00;101547.50;2066608;28;20448;-60
2023/02/23 04:27:13;;;;;;;23.50;13.80;;;;;;;6.08;100.00;101556.53;2068352;28;20202;-60
2023/02/23 04:28:14;;;;;;;20.75;13.95;;;;;;;5.08;100.00;101396.41;2072821;28;20189;-60
2023/02/23 04:29:15;;;;;;;27.75;13.10;;;;;;;6.01;100.00;101545.47;2071975;28;20175;-60
2023/02/23 04:30:16;;;;;;;22.13;13.13;;;;;;;5.98;100.00;101537.94;2072542;28;20172;-60
2023/02/23 04:31:17;;;;;;;20.13;13.73;;;;;;;6.09;100.00;101558.91;2072577;28;20343;-60
2023/02/23 04:32:19;;;;;;;20.97;13.37;;;;;;;6.09;100.00;101558.91;2072744;28;20185;-60
2023/02/23 04:33:21;;;;;;;18.63;13.50;;;;;;;6.08;100.00;101560.06;2072306;28;20678;-60
2023/02/23 04:34:21;;;;;;;26.13;13.18;;;;;;;6.12;100.00;101555.41;2067642;28;20296;-60
2023/02/23 04:35:22;;;;;;;19.63;13.80;;;;;;;6.12;100.00;101552.66;2063331;28;20688;-60
2023/02/23 04:36:23;;;;;;;18.33;13.07;;;;;;;6.00;100.00;101543.88;2070714;28;20198;-60
2023/02/23 04:37:24;;;;;;;21.13;13.65;;;;;;;6.12;100.00;101560.09;2067181;28;20212;-60
2023/02/23 04:38:24;;;;;;;23.53;13.50;;;;;;;6.11;100.00;101556.53;2072754;28;20176;-60
2023/02/23 04:39:24;;;;;;;26.97;13.33;;;;;;;5.87;100.00;101534.31;2072173;28;20228;-60
2023/02/23 04:40:25;;;;;;;22.73;13.87;;;;;;;6.05;100.00;101558.06;2072829;28;20216;-60
2023/02/23 04:41:25;;;;;;;19.80;13.27;;;;;;;6.06;100.00;101562.41;2066361;28;20194;-61
2023/02/23 04:42:26;;;;;;;25.53;13.03;;;;;;;6.09;100.00;101553.41;2071935;28;20185;-60
2023/02/23 04:43:26;;;;;;;18.67;12.40;;;;;;;6.08;100.00;101565.56;2072402;28;20190;-60
2023/02/23 04:44:27;;;;;;;19.67;12.67;;;;;;;6.08;100.00;101556.53;2072338;28;20190;-60
2023/02/23 04:45:27;;;;;;;20.77;12.97;;;;;;;5.69;100.00;101495.59;2072011;28;20224;-60
2023/02/23 04:46:28;;;;;;;22.40;13.53;;;;;;;6.01;100.00;101548.97;2070959;28;20574;-61
2023/02/23 04:47:28;;;;;;;23.10;13.07;;;;;;;6.07;100.00;101560.44;2071105;28;20185;-60
2023/02/23 04:48:29;;;;;;;18.83;13.20;;;;;;;5.93;100.00;101536.34;2072406;28;20198;-60
2023/02/23 04:49:29;;;;;;;19.33;13.47;;;;;;;5.98;100.00;101547.00;2067069;28;20202;-60
2023/02/23 04:50:30;;;;;;;18.47;12.70;;;;;;;6.00;100.00;101554.88;2072296;28;20186;-60
2023/02/23 04:51:32;;;;;;;16.53;12.60;;;;;;;5.99;100.00;101548.59;2072323;28;20196;-60
2023/02/23 04:52:33;;;;;;;19.60;12.80;;;;;;;6.07;100.00;101566.75;2071154;28;20201;-60
2023/02/23 04:53:34;;;;;;;14.75;11.20;;;;;;;5.88;100.00;101522.94;2072449;28;20190;-60
2023/02/23 04:54:38;;;;;;;18.60;12.20;;;;;;;6.12;100.00;101569.16;2072278;28;20425;-60
2023/02/23 04:55:38;;;;;;;19.77;12.70;;;;;;;5.51;100.00;101469.91;2071153;28;20676;-60
2023/02/23 04:56:39;;;;;;;18.40;12.43;;;;;;;6.11;100.00;101559.28;2072021;28;20204;-60
2023/02/23 04:57:39;;;;;;;20.67;12.33;;;;;;;6.06;100.00;101556.13;2072708;28;20316;-63
2023/02/23 04:58:40;;;;;;;18.60;11.87;;;;;;;6.05;100.00;101563.56;2072270;28;20237;-60
2023/02/23 04:59:41;;;;;;;21.17;11.83;;;;;;;5.58;100.00;101488.41;2072105;28;20796;-60
2023/02/23 05:00:41;;;;;;;17.80;11.57;;;;;;;6.04;100.00;101561.19;2072514;28;20728;-60
2023/02/23 05:01:42;;;;;;;17.57;12.63;;;;;;;5.78;100.00;101540.09;2069369;28;20201;-61
2023/02/23 05:02:43;;;;;;;18.83;12.47;;;;;;;5.99;100.00;101572.53;2069676;28;20229;-61
2023/02/23 05:03:44;;;;;;;18.80;13.20;;;;;;;5.95;100.00;101569.00;2070045;28;20189;-60
2023/02/23 05:04:44;;;;;;;17.47;11.73;;;;;;;5.94;100.00;101575.66;2071023;28;20173;-60
2023/02/23 05:05:45;;;;;;;17.93;11.73;;;;;;;4.69;100.00;101375.97;2071469;28;20605;-60
2023/02/23 05:06:45;;;;;;;17.70;12.10;;;;;;;5.91;100.00;101571.72;2070056;28;20263;-62
2023/02/23 05:07:46;;;;;;;18.23;12.40;;;;;;;5.88;100.00;101569.69;2070611;28;20201;-60
2023/02/23 05:08:46;;;;;;;20.33;12.30;;;;;;;5.31;100.00;101497.94;2070526;28;20216;-60
2023/02/23 05:09:47;;;;;;;17.57;12.03;;;;;;;5.77;100.00;101571.53;2071318;28;20687;-61
2023/02/23 05:10:47;;;;;;;20.90;12.23;;;;;;;5.73;100.00;101584.44;2071043;28;20687;-60
2023/02/23 05:11:48;;;;;;;17.47;12.73;;;;;;;5.70;100.00;101570.66;2071326;28;20185;-60
2023/02/23 05:12:48;;;;;;;20.80;12.47;;;;;;;5.25;100.00;101494.75;2070839;28;20190;-60
2023/02/23 05:13:48;;;;;;;19.03;12.60;;;;;;;5.82;100.00;101578.66;2070814;28;20194;-61
2023/02/23 05:14:49;;;;;;;18.57;11.83;;;;;;;5.84;100.00;101581.84;2071052;28;20204;-60
2023/02/23 05:15:49;;;;;;;18.10;12.77;;;;;;;5.78;100.00;101580.56;2069447;28;20413;-60
2023/02/23 05:16:50;;;;;;;17.33;12.53;;;;;;;5.80;100.00;101578.25;2072502;28;20196;-63
2023/02/23 05:17:50;;;;;;;17.70;12.43;;;;;;;5.77;100.00;101581.72;2071331;28;20274;-63
2023/02/23 05:18:51;;;;;;;23.27;13.50;;;;;;;5.81;100.00;101588.09;2070589;28;20238;-63
2023/02/23 05:19:52;;;;;;;22.13;13.23;;;;;;;5.60;100.00;101544.59;2071478;28;20582;-65
2023/02/23 05:21:00;;;;;;;23.85;13.60;;;;;;;5.79;100.00;101577.44;2069799;28;20195;-62
2023/02/23 05:22:00;;;;;;;36.05;17.95;;;;;;;5.20;100.00;101489.59;2069812;28;20624;-61
2023/02/23 05:23:01;;;;;;;22.10;14.17;;;;;;;5.81;100.00;101586.16;2071695;28;20185;-60
2023/02/23 05:24:01;;;;;;;30.80;15.40;;;;;;;5.82;100.00;101584.16;2069957;28;20190;-60
2023/02/23 05:25:03;;;;;;;27.27;14.37;;;;;;;5.83;100.00;101583.78;2069208;28;20622;-59
2023/02/23 05:26:06;;;;;;;22.00;13.85;;;;;;;5.29;100.00;101501.06;2069342;28;20198;-60
2023/02/23 05:27:08;;;;;;;18.08;12.20;;;;;;;5.54;100.00;101546.13;2070557;28;20212;-60
2023/02/23 05:28:09;;;;;;;27.10;13.20;;;;;;;5.38;100.00;101515.31;2070334;28;20695;-60
2023/02/23 05:29:10;;;;;;;22.10;13.40;;;;;;;5.81;100.00;101583.41;2070304;28;21245;-60
2023/02/23 05:30:11;;;;;;;23.08;13.10;;;;;;;5.78;100.00;101586.84;2068374;28;20666;-61
2023/02/23 05:31:11;;;;;;;21.73;13.87;;;;;;;5.76;100.00;101589.19;2070498;28;20567;-61
2023/02/23 05:32:12;;;;;;;22.47;13.77;;;;;;;5.74;100.00;101593.50;2070429;28;20196;-60
2023/02/23 05:33:13;;;;;;;21.67;13.53;;;;;;;5.73;100.00;101589.94;2069993;28;20205;-61
2023/02/23 05:34:15;;;;;;;20.47;14.13;;;;;;;5.72;100.00;101588.38;2070232;28;20254;-60
2023/02/23 05:35:16;;;;;;;20.48;14.45;;;;;;;5.71;100.00;101594.22;2061785;28;20273;-60
2023/02/23 05:36:19;;;;;;;21.73;14.90;;;;;;;5.57;100.00;101575.63;2064484;28;20209;-60
2023/02/23 05:37:19;;;;;;;34.70;19.77;;;;;;;5.73;100.00;101597.38;2067599;28;20196;-62
2023/02/23 05:38:20;;;;;;;74.73;23.07;;;;;;;5.41;100.00;101547.56;2047710;28;20304;-63
2023/02/23 05:39:21;;;;;;;55.53;21.83;;;;;;;5.72;100.00;101596.63;2070861;28;20182;-64
2023/02/23 05:40:21;;;;;;;33.43;20.57;;;;;;;5.73;100.00;101600.13;2068015;28;20571;-63
2023/02/23 05:41:22;;;;;;;34.43;19.60;;;;;;;5.73;100.00;101598.19;2068092;28;20681;-64
2023/02/23 05:42:23;;;;;;;30.80;21.87;;;;;;;5.68;100.00;101601.28;2067100;28;20288;-63
2023/02/23 05:43:23;;;;;;;34.17;25.43;;;;;;;5.09;100.00;101509.84;2067161;28;21795;-64
2023/02/23 05:44:24;;;;;;;41.37;27.50;;;;;;;5.67;100.00;101596.16;2066855;28;20652;-63
2023/02/23 05:45:24;;;;;;;66.07;32.97;;;;;;;5.69;100.00;101610.34;2063160;28;20595;-60
2023/02/23 05:46:26;;;;;;;59.17;28.43;;;;;;;5.73;100.00;101638.66;2065244;28;20692;-59
2023/02/23 05:47:26;;;;;;;60.88;25.38;;;;;;;5.35;100.00;101559.25;2062677;28;20207;-60
2023/02/23 05:48:28;;;;;;;34.63;19.53;;;;;;;5.46;100.00;101604.16;2066277;28;20197;-59
2023/02/23 05:49:28;;;;;;;48.28;21.13;;;;;;;5.70;100.00;101620.16;2066749;28;20208;-59
2023/02/23 05:50:28;;;;;;;37.87;19.20;;;;;;;5.74;100.00;101616.28;2064964;28;20355;-59
2023/02/23 05:51:32;;;;;;;44.30;24.80;;;;;;;5.78;100.00;101619.06;2069012;28;20578;-60
2023/02/23 05:52:37;;;;;;;34.03;20.45;;;;;;;5.78;100.00;101617.09;2064015;28;20197;-59
2023/02/23 05:53:37;;;;;;;32.03;20.52;;;;;;;5.82;100.00;101623.47;2060321;28;20217;-59
2023/02/23 05:54:38;;;;;;;30.10;18.77;;;;;;;5.79;100.00;101621.44;2063927;28;20405;-59
2023/02/23 05:55:38;;;;;;;27.73;19.30;;;;;;;5.77;100.00;101625.72;2064382;28;20322;-59
2023/02/23 05:56:40;;;;;;;45.37;24.00;;;;;;;5.18;100.00;101537.84;2065659;28;20190;-58
2023/02/23 05:57:41;;;;;;;32.17;21.13;;;;;;;5.72;100.00;101631.56;2069131;28;20658;-61
2023/02/23 05:58:41;;;;;;;38.60;25.20;;;;;;;5.69;100.00;101635.09;2067470;28;20342;-59
2023/02/23 05:59:42;;;;;;;38.60;23.87;;;;;;;5.72;100.00;101635.13;2057304;28;20193;-59
2023/02/23 06:00:43;;;;;;;22.80;16.43;;;;;;;5.14;100.00;101548.78;2065151;28;20223;-61
2023/02/23 06:01:43;;;;;;;31.23;19.73;;;;;;;5.66;100.00;101635.81;2055937;28;20669;-59
2023/02/23 06:02:44;;;;;;;45.57;24.67;;;;;;;5.72;100.00;101643.38;2067043;28;20456;-62
2023/02/23 06:03:46;;;;;;;45.40;22.90;;;;;;;5.68;100.00;101625.22;2069555;28;20209;-59
2023/02/23 06:04:46;;;;;;;52.90;24.25;;;;;;;5.81;100.00;101641.16;2064965;28;20296;-59
2023/02/23 06:05:54;;;;;;;51.47;24.47;;;;;;;5.85;100.00;101641.19;2064416;28;20222;-59
2023/02/23 06:06:55;;;;;;;27.42;16.65;;;;;;;5.89;100.00;101651.06;2065524;28;20714;-66
2023/02/23 06:07:55;;;;;;;23.37;16.90;;;;;;;5.83;100.00;101647.06;2064643;28;20699;-65
2023/02/23 06:08:56;;;;;;;27.47;19.93;;;;;;;5.82;100.00;101651.00;2066908;28;20189;-66
2023/02/23 06:09:56;;;;;;;24.23;15.83;;;;;;;5.74;100.00;101635.53;2065937;28;20617;-66
2023/02/23 06:10:57;;;;;;;19.87;14.33;;;;;;;5.86;100.00;101657.34;2069150;28;20244;-65